Ingomar, MT (59039)

12:20 AM MDT on August 19, 2017 (GMT -0600)
Wiley | | Change Station

Elev 2628 ft 46.43 °N, 105.89 °W | Updated 27 minutes ago

Clear
Clear
72 °F
Feels Like 72 °F
N
9
Wind Variable Wind from SSE

Today
High -- | Low -- °F
--% Chance of Precip.
Yesterday
High -- | Low -- °F
Precip. -- in
Pressure 29.75 in
Visibility 10.0 miles
Clouds Clear
Dew Point 35 °F
Humidity 26%
Rainfall 0.00 in
Snow Depth Not available.
6:12 AM 8:11 PM
Waning Crescent, 8% visible
METAR KMLS 190553Z AUTO 16008KT 10SM CLR 22/02 A2982 RMK AO2 SLP074 T02220017 10328 20222 58006
Pressure 29.75 in
Visibility 10.0 miles
Clouds Clear
Dew Point 35 °F
Humidity 26%
Rainfall 0.00 in
Snow Depth Not available.
6:12 AM 8:11 PM
Waning Crescent, 8% visible
METAR KMLS 190553Z AUTO 16008KT 10SM CLR 22/02 A2982 RMK AO2 SLP074 T02220017 10328 20222 58006

Get Severe Weather Alerts

Thanks for signing up!

Be on the lookout for a verification email in your inbox.

You'll start receiving the daily forecast at 6 AM.

×

10-Day Weather Forecast

Almanac

Astronomy

Aug. 19, 2017 Rise Set
Actual Time
Civil Twilight
Nautical Twilight
Astronomical Twilight
Moon
Length of Visible Light
Length of Day
Tomorrow will be .
, % of the Moon is Illuminated

Today's Extremes

State Highs State Lows

Community

WunderPhotos

Category 6

Welcome to Category 6. This is the collective home for Weather Underground's featured writeups by Dr. Jeff Masters (right), Bob Henson (left), Chris Burt, and other regular contributors.

Nearby

Air Quality

  Air Quality AQ Index Pollutant
Not available.

Snow Depth

Station Depth Elevation

Earthquake Activity

City Distance Mag. Time & Date
Minimum magnitude displayed is 2.5.

Coastal Water Temperatures

Place Temperature

Stations

Nearby Weather Stations

Station Location Temp. Windchill Dew Point Humidity Wind Precip. Elev Updated Type
                   

Watches & Warnings

There are currently no watches in effect.